This is the latest recevied weather packets stored in our database for station/object E24CR-1. If no packets are shown the sender has not sent any weather packets the latest 10 day(s).
| Time | Temp. | Humidity | Pressure | Rain* | Wind** | Luminosity | Snow |
|---|---|---|---|---|---|---|---|
| 1777923251 | 25° C | 79% | 953 hPa | - | - | 0 W/m² | - |
| 1777922627 | 25° C | 79% | 953 hPa | - | - | 0 W/m² | - |
| 1777922003 | 24.44° C | 82% | 953 hPa | - | - | 0 W/m² | - |
| 1777921379 | 25° C | 82% | 953 hPa | - | - | 0 W/m² | - |
| 1777920755 | 24.44° C | 87% | 954 hPa | - | - | 0 W/m² | - |
| 1777920130 | 24.44° C | 89% | 954 hPa | - | - | 0 W/m² | - |
| 1777919506 | 25° C | 85% | 953 hPa | - | - | 0 W/m² | - |
| 1777918882 | 25° C | 85% | 954 hPa | - | - | 0 W/m² | - |
| 1777918258 | 25° C | 80% | 954 hPa | - | - | 0 W/m² | - |
| 1777917634 | 25° C | 76% | 954 hPa | - | - | 0 W/m² | - |
| 1777917009 | 26.11° C | 71% | 954 hPa | - | - | 0 W/m² | - |
| 1777916386 | 26.67° C | 69% | 954 hPa | - | - | 0 W/m² | - |
| 1777915761 | 27.22° C | 64% | 954 hPa | - | - | 0 W/m² | - |
| 1777915137 | 27.78° C | 62% | 954 hPa | - | - | 0 W/m² | - |
| 1777914513 | 27.78° C | 60% | 954 hPa | - | - | 0 W/m² | - |
| 1777913889 | 28.33° C | 59% | 954 hPa | - | - | 0 W/m² | - |
| 1777913265 | 28.33° C | 58% | 954 hPa | - | - | 0 W/m² | - |
| 1777912641 | 28.33° C | 57% | 954 hPa | - | - | 0 W/m² | - |
| 1777912016 | 28.89° C | 57% | 953 hPa | - | - | 0 W/m² | - |
| 1777911392 | 28.33° C | 57% | 953 hPa | - | - | 0 W/m² | - |
| 1777910768 | 28.33° C | 57% | 953 hPa | - | - | 0 W/m² | - |
| 1777910144 | 28.89° C | 55% | 953 hPa | - | - | 0 W/m² | - |
| 1777909520 | 28.89° C | 55% | 953 hPa | - | - | 0 W/m² | - |
| 1777908896 | 28.89° C | 53% | 952 hPa | - | - | 0 W/m² | - |
| 1777908271 | 29.44° C | 51% | 952 hPa | - | - | 0 W/m² | - |
* Rain since midnight (hover to see other rain measurements)
** Current wind speed in m/s (hover to see current wind gust speed)